sensor_id;sensor_type;location;lat;lon;timestamp;P1;durP1;ratioP1;P2;durP2;ratioP2
65315;SDS011;51920;53.952;10.292;2023-05-13T00:01:22;9.30;;;6.27;;
65315;SDS011;51920;53.952;10.292;2023-05-13T00:03:49;8.60;;;6.30;;
65315;SDS011;51920;53.952;10.292;2023-05-13T00:06:16;9.75;;;6.63;;
65315;SDS011;51920;53.952;10.292;2023-05-13T00:08:43;8.45;;;6.43;;
65315;SDS011;51920;53.952;10.292;2023-05-13T00:11:10;8.35;;;6.25;;
65315;SDS011;51920;53.952;10.292;2023-05-13T00:13:37;9.20;;;6.30;;
65315;SDS011;51920;53.952;10.292;2023-05-13T00:16:04;10.07;;;6.75;;
65315;SDS011;51920;53.952;10.292;2023-05-13T00:18:31;9.07;;;6.75;;
65315;SDS011;51920;53.952;10.292;2023-05-13T00:20:57;8.85;;;6.53;;
65315;SDS011;51920;53.952;10.292;2023-05-13T00:23:24;9.75;;;6.82;;
65315;SDS011;51920;53.952;10.292;2023-05-13T00:25:51;9.13;;;6.67;;
65315;SDS011;51920;53.952;10.292;2023-05-13T00:28:18;8.05;;;6.40;;
65315;SDS011;51920;53.952;10.292;2023-05-13T00:30:46;9.07;;;6.40;;
65315;SDS011;51920;53.952;10.292;2023-05-13T00:33:15;9.52;;;6.53;;
65315;SDS011;51920;53.952;10.292;2023-05-13T00:35:41;10.90;;;7.63;;
65315;SDS011;51920;53.952;10.292;2023-05-13T00:38:09;11.70;;;7.13;;
65315;SDS011;51920;53.952;10.292;2023-05-13T00:40:36;10.40;;;7.03;;
65315;SDS011;51920;53.952;10.292;2023-05-13T00:43:09;9.00;;;6.72;;
65315;SDS011;51920;53.952;10.292;2023-05-13T00:45:37;9.63;;;7.28;;
65315;SDS011;51920;53.952;10.292;2023-05-13T00:48:04;8.82;;;6.90;;
65315;SDS011;51920;53.952;10.292;2023-05-13T00:50:32;10.90;;;7.50;;
65315;SDS011;51920;53.952;10.292;2023-05-13T00:52:59;9.82;;;7.15;;
65315;SDS011;51920;53.952;10.292;2023-05-13T00:55:28;10.18;;;7.45;;
65315;SDS011;51920;53.952;10.292;2023-05-13T00:57:54;10.60;;;7.15;;
65315;SDS011;51920;53.952;10.292;2023-05-13T01:00:21;8.77;;;6.80;;
65315;SDS011;51920;53.952;10.292;2023-05-13T01:03:02;10.23;;;7.17;;
65315;SDS011;51920;53.952;10.292;2023-05-13T01:05:39;12.48;;;6.95;;
65315;SDS011;51920;53.952;10.292;2023-05-13T01:08:16;10.52;;;7.65;;
65315;SDS011;51920;53.952;10.292;2023-05-13T01:11:00;10.25;;;7.68;;
65315;SDS011;51920;53.952;10.292;2023-05-13T01:13:32;10.95;;;7.40;;
65315;SDS011;51920;53.952;10.292;2023-05-13T01:16:04;10.60;;;7.27;;
65315;SDS011;51920;53.952;10.292;2023-05-13T01:18:38;11.50;;;7.22;;
65315;SDS011;51920;53.952;10.292;2023-05-13T01:21:09;11.90;;;7.68;;
65315;SDS011;51920;53.952;10.292;2023-05-13T01:23:37;11.38;;;7.15;;
65315;SDS011;51920;53.952;10.292;2023-05-13T01:26:03;12.68;;;8.00;;
65315;SDS011;51920;53.952;10.292;2023-05-13T01:28:32;10.80;;;7.93;;
65315;SDS011;51920;53.952;10.292;2023-05-13T01:31:00;10.95;;;7.68;;
65315;SDS011;51920;53.952;10.292;2023-05-13T01:33:27;9.98;;;7.72;;
65315;SDS011;51920;53.952;10.292;2023-05-13T01:35:55;10.75;;;7.55;;
65315;SDS011;51920;53.952;10.292;2023-05-13T01:38:22;9.60;;;7.93;;
65315;SDS011;51920;53.952;10.292;2023-05-13T01:40:54;11.83;;;8.03;;
65315;SDS011;51920;53.952;10.292;2023-05-13T01:43:21;12.07;;;7.40;;
65315;SDS011;51920;53.952;10.292;2023-05-13T01:45:48;12.77;;;8.23;;
65315;SDS011;51920;53.952;10.292;2023-05-13T01:48:15;12.18;;;8.43;;
65315;SDS011;51920;53.952;10.292;2023-05-13T01:50:46;10.35;;;7.93;;
65315;SDS011;51920;53.952;10.292;2023-05-13T01:53:13;11.53;;;7.87;;
65315;SDS011;51920;53.952;10.292;2023-05-13T01:55:39;10.07;;;7.93;;
65315;SDS011;51920;53.952;10.292;2023-05-13T01:58:07;11.10;;;8.30;;
65315;SDS011;51920;53.952;10.292;2023-05-13T02:00:34;12.27;;;8.43;;
65315;SDS011;51920;53.952;10.292;2023-05-13T02:03:01;11.15;;;7.70;;
65315;SDS011;51920;53.952;10.292;2023-05-13T02:05:28;11.10;;;7.90;;
65315;SDS011;51920;53.952;10.292;2023-05-13T02:07:57;11.75;;;8.23;;
65315;SDS011;51920;53.952;10.292;2023-05-13T02:10:24;12.00;;;8.68;;
65315;SDS011;51920;53.952;10.292;2023-05-13T02:12:51;12.30;;;8.82;;
65315;SDS011;51920;53.952;10.292;2023-05-13T02:15:18;13.95;;;9.13;;
65315;SDS011;51920;53.952;10.292;2023-05-13T02:17:45;12.80;;;9.50;;
65315;SDS011;51920;53.952;10.292;2023-05-13T02:20:12;14.27;;;9.20;;
65315;SDS011;51920;53.952;10.292;2023-05-13T02:22:39;15.25;;;9.80;;
65315;SDS011;51920;53.952;10.292;2023-05-13T02:25:07;14.57;;;9.48;;
65315;SDS011;51920;53.952;10.292;2023-05-13T02:27:35;15.25;;;9.80;;
65315;SDS011;51920;53.952;10.292;2023-05-13T02:30:03;14.00;;;9.47;;
65315;SDS011;51920;53.952;10.292;2023-05-13T02:32:30;14.43;;;9.57;;
65315;SDS011;51920;53.952;10.292;2023-05-13T02:34:57;13.32;;;9.80;;
65315;SDS011;51920;53.952;10.292;2023-05-13T02:37:24;14.63;;;9.63;;
65315;SDS011;51920;53.952;10.292;2023-05-13T02:39:57;15.25;;;9.90;;
65315;SDS011;51920;53.952;10.292;2023-05-13T02:42:24;15.37;;;10.10;;
65315;SDS011;51920;53.952;10.292;2023-05-13T02:44:51;13.55;;;9.70;;
65315;SDS011;51920;53.952;10.292;2023-05-13T02:47:18;15.63;;;10.07;;
65315;SDS011;51920;53.952;10.292;2023-05-13T02:49:45;13.95;;;9.68;;
65315;SDS011;51920;53.952;10.292;2023-05-13T02:52:12;14.25;;;9.73;;
65315;SDS011;51920;53.952;10.292;2023-05-13T02:54:38;13.80;;;9.83;;
65315;SDS011;51920;53.952;10.292;2023-05-13T02:57:05;16.38;;;10.02;;
65315;SDS011;51920;53.952;10.292;2023-05-13T02:59:32;14.23;;;10.40;;
65315;SDS011;51920;53.952;10.292;2023-05-13T03:01:59;15.60;;;10.30;;
65315;SDS011;51920;53.952;10.292;2023-05-13T03:04:26;15.48;;;10.50;;
65315;SDS011;51920;53.952;10.292;2023-05-13T03:06:53;15.57;;;10.67;;
65315;SDS011;51920;53.952;10.292;2023-05-13T03:09:20;16.25;;;10.65;;
65315;SDS011;51920;53.952;10.292;2023-05-13T03:11:47;13.95;;;10.13;;
65315;SDS011;51920;53.952;10.292;2023-05-13T03:14:14;15.73;;;10.25;;
65315;SDS011;51920;53.952;10.292;2023-05-13T03:16:41;15.73;;;9.68;;
65315;SDS011;51920;53.952;10.292;2023-05-13T03:19:08;17.07;;;10.23;;
65315;SDS011;51920;53.952;10.292;2023-05-13T03:21:35;15.45;;;10.43;;
65315;SDS011;51920;53.952;10.292;2023-05-13T03:24:02;13.93;;;10.18;;
65315;SDS011;51920;53.952;10.292;2023-05-13T03:26:29;16.50;;;10.15;;
65315;SDS011;51920;53.952;10.292;2023-05-13T03:28:56;17.08;;;10.18;;
65315;SDS011;51920;53.952;10.292;2023-05-13T03:31:23;12.30;;;9.03;;
65315;SDS011;51920;53.952;10.292;2023-05-13T03:33:50;15.82;;;10.00;;
65315;SDS011;51920;53.952;10.292;2023-05-13T03:36:17;15.45;;;10.25;;
65315;SDS011;51920;53.952;10.292;2023-05-13T03:38:44;18.98;;;10.18;;
65315;SDS011;51920;53.952;10.292;2023-05-13T03:41:12;13.90;;;9.98;;
65315;SDS011;51920;53.952;10.292;2023-05-13T03:43:44;15.23;;;10.17;;
65315;SDS011;51920;53.952;10.292;2023-05-13T03:46:11;13.90;;;9.55;;
65315;SDS011;51920;53.952;10.292;2023-05-13T03:48:38;14.50;;;10.20;;
65315;SDS011;51920;53.952;10.292;2023-05-13T03:51:05;14.60;;;9.95;;
65315;SDS011;51920;53.952;10.292;2023-05-13T03:53:32;16.15;;;10.25;;
65315;SDS011;51920;53.952;10.292;2023-05-13T03:55:58;15.03;;;10.23;;
65315;SDS011;51920;53.952;10.292;2023-05-13T03:58:27;13.13;;;10.10;;
65315;SDS011;51920;53.952;10.292;2023-05-13T04:00:53;16.35;;;10.73;;
65315;SDS011;51920;53.952;10.292;2023-05-13T04:03:20;13.93;;;9.57;;
65315;SDS011;51920;53.952;10.292;2023-05-13T04:05:47;15.48;;;10.35;;
65315;SDS011;51920;53.952;10.292;2023-05-13T04:08:14;13.10;;;9.40;;
65315;SDS011;51920;53.952;10.292;2023-05-13T04:10:41;15.43;;;10.45;;
65315;SDS011;51920;53.952;10.292;2023-05-13T04:13:08;13.50;;;10.02;;
65315;SDS011;51920;53.952;10.292;2023-05-13T04:15:35;14.77;;;9.85;;
65315;SDS011;51920;53.952;10.292;2023-05-13T04:18:04;14.57;;;9.93;;
65315;SDS011;51920;53.952;10.292;2023-05-13T04:20:32;15.63;;;9.40;;
65315;SDS011;51920;53.952;10.292;2023-05-13T04:23:00;14.65;;;9.82;;
65315;SDS011;51920;53.952;10.292;2023-05-13T04:25:27;15.18;;;10.52;;
65315;SDS011;51920;53.952;10.292;2023-05-13T04:27:54;14.82;;;10.02;;
65315;SDS011;51920;53.952;10.292;2023-05-13T04:30:29;14.20;;;9.90;;
65315;SDS011;51920;53.952;10.292;2023-05-13T04:32:56;15.30;;;10.03;;
65315;SDS011;51920;53.952;10.292;2023-05-13T04:35:23;15.80;;;9.88;;
65315;SDS011;51920;53.952;10.292;2023-05-13T04:37:54;15.45;;;9.63;;
65315;SDS011;51920;53.952;10.292;2023-05-13T04:40:21;15.63;;;9.80;;
65315;SDS011;51920;53.952;10.292;2023-05-13T04:42:49;13.98;;;9.70;;
65315;SDS011;51920;53.952;10.292;2023-05-13T04:45:24;12.07;;;9.33;;
65315;SDS011;51920;53.952;10.292;2023-05-13T04:47:51;18.35;;;9.48;;
65315;SDS011;51920;53.952;10.292;2023-05-13T04:50:17;17.17;;;10.27;;
65315;SDS011;51920;53.952;10.292;2023-05-13T04:52:44;16.83;;;10.23;;
65315;SDS011;51920;53.952;10.292;2023-05-13T04:55:13;13.75;;;9.20;;
65315;SDS011;51920;53.952;10.292;2023-05-13T04:57:40;13.20;;;9.53;;
65315;SDS011;51920;53.952;10.292;2023-05-13T05:00:08;14.27;;;9.82;;
65315;SDS011;51920;53.952;10.292;2023-05-13T05:02:37;13.90;;;9.45;;
65315;SDS011;51920;53.952;10.292;2023-05-13T05:05:04;14.25;;;9.23;;
65315;SDS011;51920;53.952;10.292;2023-05-13T05:07:32;16.30;;;9.95;;
65315;SDS011;51920;53.952;10.292;2023-05-13T05:09:59;13.97;;;9.33;;
65315;SDS011;51920;53.952;10.292;2023-05-13T05:12:28;13.50;;;10.48;;
65315;SDS011;51920;53.952;10.292;2023-05-13T05:14:56;13.35;;;9.43;;
65315;SDS011;51920;53.952;10.292;2023-05-13T05:17:23;15.60;;;9.50;;
65315;SDS011;51920;53.952;10.292;2023-05-13T05:19:50;14.13;;;9.50;;
65315;SDS011;51920;53.952;10.292;2023-05-13T05:22:17;15.07;;;9.50;;
65315;SDS011;51920;53.952;10.292;2023-05-13T05:24:44;11.90;;;8.57;;
65315;SDS011;51920;53.952;10.292;2023-05-13T05:27:12;12.68;;;8.80;;
65315;SDS011;51920;53.952;10.292;2023-05-13T05:29:40;14.07;;;8.82;;
65315;SDS011;51920;53.952;10.292;2023-05-13T05:32:07;13.30;;;8.75;;
65315;SDS011;51920;53.952;10.292;2023-05-13T05:34:34;13.40;;;8.90;;
65315;SDS011;51920;53.952;10.292;2023-05-13T05:37:01;11.90;;;8.95;;
65315;SDS011;51920;53.952;10.292;2023-05-13T05:39:30;14.70;;;8.88;;
65315;SDS011;51920;53.952;10.292;2023-05-13T05:41:57;14.55;;;8.90;;
65315;SDS011;51920;53.952;10.292;2023-05-13T05:44:24;14.35;;;9.20;;
65315;SDS011;51920;53.952;10.292;2023-05-13T05:46:51;11.80;;;9.00;;
65315;SDS011;51920;53.952;10.292;2023-05-13T05:49:19;13.38;;;8.85;;
65315;SDS011;51920;53.952;10.292;2023-05-13T05:51:47;11.57;;;8.38;;
65315;SDS011;51920;53.952;10.292;2023-05-13T05:54:14;11.98;;;8.85;;
65315;SDS011;51920;53.952;10.292;2023-05-13T05:56:41;14.63;;;9.27;;
65315;SDS011;51920;53.952;10.292;2023-05-13T05:59:08;11.50;;;8.97;;
65315;SDS011;51920;53.952;10.292;2023-05-13T06:01:34;12.00;;;8.30;;
65315;SDS011;51920;53.952;10.292;2023-05-13T06:04:02;11.07;;;8.82;;
65315;SDS011;51920;53.952;10.292;2023-05-13T06:06:29;12.68;;;8.45;;
65315;SDS011;51920;53.952;10.292;2023-05-13T06:08:58;12.77;;;8.70;;
65315;SDS011;51920;53.952;10.292;2023-05-13T06:11:26;12.03;;;8.40;;
65315;SDS011;51920;53.952;10.292;2023-05-13T06:13:53;11.95;;;8.80;;
65315;SDS011;51920;53.952;10.292;2023-05-13T06:16:20;13.00;;;8.60;;
65315;SDS011;51920;53.952;10.292;2023-05-13T06:18:47;10.55;;;8.15;;
65315;SDS011;51920;53.952;10.292;2023-05-13T06:21:14;12.48;;;8.00;;
65315;SDS011;51920;53.952;10.292;2023-05-13T06:23:41;10.87;;;7.90;;
65315;SDS011;51920;53.952;10.292;2023-05-13T06:26:07;11.13;;;8.18;;
65315;SDS011;51920;53.952;10.292;2023-05-13T06:28:34;12.80;;;8.27;;
65315;SDS011;51920;53.952;10.292;2023-05-13T06:31:00;14.15;;;8.23;;
65315;SDS011;51920;53.952;10.292;2023-05-13T06:33:28;11.95;;;8.02;;
65315;SDS011;51920;53.952;10.292;2023-05-13T06:35:55;11.37;;;8.20;;
65315;SDS011;51920;53.952;10.292;2023-05-13T06:38:23;10.18;;;7.80;;
65315;SDS011;51920;53.952;10.292;2023-05-13T06:40:54;13.65;;;8.45;;
65315;SDS011;51920;53.952;10.292;2023-05-13T06:43:27;9.77;;;7.90;;
65315;SDS011;51920;53.952;10.292;2023-05-13T06:45:57;9.90;;;8.20;;
65315;SDS011;51920;53.952;10.292;2023-05-13T06:48:26;10.97;;;8.13;;
65315;SDS011;51920;53.952;10.292;2023-05-13T06:50:53;10.68;;;7.80;;
65315;SDS011;51920;53.952;10.292;2023-05-13T06:53:20;10.20;;;7.78;;
65315;SDS011;51920;53.952;10.292;2023-05-13T06:55:47;9.98;;;7.72;;
65315;SDS011;51920;53.952;10.292;2023-05-13T06:58:14;10.50;;;8.20;;
65315;SDS011;51920;53.952;10.292;2023-05-13T07:00:41;13.33;;;8.33;;
65315;SDS011;51920;53.952;10.292;2023-05-13T07:03:08;10.70;;;7.60;;
65315;SDS011;51920;53.952;10.292;2023-05-13T07:05:35;12.05;;;8.00;;
65315;SDS011;51920;53.952;10.292;2023-05-13T07:08:02;10.82;;;7.65;;
65315;SDS011;51920;53.952;10.292;2023-05-13T07:10:34;12.23;;;7.65;;
65315;SDS011;51920;53.952;10.292;2023-05-13T07:13:01;11.57;;;7.57;;
65315;SDS011;51920;53.952;10.292;2023-05-13T07:15:28;10.85;;;7.75;;
65315;SDS011;51920;53.952;10.292;2023-05-13T07:17:55;10.00;;;7.45;;
65315;SDS011;51920;53.952;10.292;2023-05-13T07:20:22;9.32;;;7.05;;
65315;SDS011;51920;53.952;10.292;2023-05-13T07:22:49;9.80;;;6.85;;
65315;SDS011;51920;53.952;10.292;2023-05-13T07:25:17;9.17;;;6.73;;
65315;SDS011;51920;53.952;10.292;2023-05-13T07:27:44;12.43;;;6.50;;
65315;SDS011;51920;53.952;10.292;2023-05-13T07:30:11;10.00;;;6.78;;
65315;SDS011;51920;53.952;10.292;2023-05-13T07:32:39;9.20;;;6.47;;
65315;SDS011;51920;53.952;10.292;2023-05-13T07:35:06;10.18;;;7.18;;
65315;SDS011;51920;53.952;10.292;2023-05-13T07:37:34;10.53;;;6.70;;
65315;SDS011;51920;53.952;10.292;2023-05-13T07:40:03;9.10;;;6.72;;
65315;SDS011;51920;53.952;10.292;2023-05-13T07:42:31;40.15;;;9.35;;
65315;SDS011;51920;53.952;10.292;2023-05-13T07:44:58;11.05;;;6.45;;
65315;SDS011;51920;53.952;10.292;2023-05-13T07:47:25;10.05;;;6.53;;
65315;SDS011;51920;53.952;10.292;2023-05-13T07:49:54;10.97;;;6.20;;
65315;SDS011;51920;53.952;10.292;2023-05-13T07:52:21;9.30;;;6.03;;
65315;SDS011;51920;53.952;10.292;2023-05-13T07:54:48;8.50;;;5.80;;
65315;SDS011;51920;53.952;10.292;2023-05-13T07:57:14;9.32;;;6.05;;
65315;SDS011;51920;53.952;10.292;2023-05-13T07:59:41;8.25;;;5.93;;
65315;SDS011;51920;53.952;10.292;2023-05-13T08:02:10;8.27;;;5.80;;
65315;SDS011;51920;53.952;10.292;2023-05-13T08:04:37;6.55;;;5.68;;
65315;SDS011;51920;53.952;10.292;2023-05-13T08:07:04;8.18;;;5.57;;
65315;SDS011;51920;53.952;10.292;2023-05-13T08:09:31;6.47;;;5.30;;
65315;SDS011;51920;53.952;10.292;2023-05-13T08:11:58;9.00;;;5.70;;
65315;SDS011;51920;53.952;10.292;2023-05-13T08:14:25;7.43;;;6.10;;
65315;SDS011;51920;53.952;10.292;2023-05-13T08:16:52;7.82;;;5.20;;
65315;SDS011;51920;53.952;10.292;2023-05-13T08:19:18;7.85;;;5.68;;
65315;SDS011;51920;53.952;10.292;2023-05-13T08:21:45;7.97;;;5.07;;
65315;SDS011;51920;53.952;10.292;2023-05-13T08:24:12;10.00;;;5.40;;
65315;SDS011;51920;53.952;10.292;2023-05-13T08:26:38;6.27;;;4.97;;
65315;SDS011;51920;53.952;10.292;2023-05-13T08:29:05;8.25;;;5.35;;
65315;SDS011;51920;53.952;10.292;2023-05-13T08:31:32;6.68;;;4.72;;
65315;SDS011;51920;53.952;10.292;2023-05-13T08:33:59;6.60;;;4.90;;
65315;SDS011;51920;53.952;10.292;2023-05-13T08:36:26;8.48;;;4.63;;
65315;SDS011;51920;53.952;10.292;2023-05-13T08:38:54;6.80;;;4.60;;
65315;SDS011;51920;53.952;10.292;2023-05-13T08:41:20;8.65;;;5.05;;
65315;SDS011;51920;53.952;10.292;2023-05-13T08:43:48;7.72;;;4.50;;
65315;SDS011;51920;53.952;10.292;2023-05-13T08:46:17;6.65;;;4.38;;
65315;SDS011;51920;53.952;10.292;2023-05-13T08:48:44;6.75;;;4.30;;
65315;SDS011;51920;53.952;10.292;2023-05-13T08:51:11;7.13;;;4.30;;
65315;SDS011;51920;53.952;10.292;2023-05-13T08:53:38;6.90;;;4.75;;
65315;SDS011;51920;53.952;10.292;2023-05-13T08:56:09;10.00;;;4.82;;
65315;SDS011;51920;53.952;10.292;2023-05-13T08:58:36;6.15;;;4.50;;
65315;SDS011;51920;53.952;10.292;2023-05-13T09:01:04;9.65;;;4.80;;
65315;SDS011;51920;53.952;10.292;2023-05-13T09:03:31;5.97;;;4.60;;
65315;SDS011;51920;53.952;10.292;2023-05-13T09:05:59;7.65;;;4.75;;
65315;SDS011;51920;53.952;10.292;2023-05-13T09:08:26;6.22;;;4.25;;
65315;SDS011;51920;53.952;10.292;2023-05-13T09:10:53;5.80;;;4.30;;
65315;SDS011;51920;53.952;10.292;2023-05-13T09:13:20;6.90;;;4.45;;
65315;SDS011;51920;53.952;10.292;2023-05-13T09:15:47;6.67;;;4.00;;
65315;SDS011;51920;53.952;10.292;2023-05-13T09:18:16;7.90;;;4.13;;
65315;SDS011;51920;53.952;10.292;2023-05-13T09:20:44;8.38;;;4.18;;
65315;SDS011;51920;53.952;10.292;2023-05-13T09:23:11;6.28;;;4.00;;
65315;SDS011;51920;53.952;10.292;2023-05-13T09:25:38;6.85;;;4.30;;
65315;SDS011;51920;53.952;10.292;2023-05-13T09:28:06;7.17;;;4.00;;
65315;SDS011;51920;53.952;10.292;2023-05-13T09:30:34;6.85;;;4.35;;
65315;SDS011;51920;53.952;10.292;2023-05-13T09:33:11;7.07;;;4.30;;
65315;SDS011;51920;53.952;10.292;2023-05-13T09:35:40;4.93;;;3.97;;
65315;SDS011;51920;53.952;10.292;2023-05-13T09:38:15;5.90;;;4.47;;
65315;SDS011;51920;53.952;10.292;2023-05-13T09:40:52;6.33;;;4.00;;
65315;SDS011;51920;53.952;10.292;2023-05-13T09:43:23;5.15;;;4.13;;
65315;SDS011;51920;53.952;10.292;2023-05-13T09:45:57;6.68;;;4.20;;
65315;SDS011;51920;53.952;10.292;2023-05-13T09:48:27;8.10;;;4.10;;
65315;SDS011;51920;53.952;10.292;2023-05-13T09:50:56;6.75;;;4.10;;
65315;SDS011;51920;53.952;10.292;2023-05-13T09:53:24;6.73;;;4.00;;
65315;SDS011;51920;53.952;10.292;2023-05-13T09:55:53;5.47;;;4.28;;
65315;SDS011;51920;53.952;10.292;2023-05-13T09:58:21;5.63;;;4.15;;
65315;SDS011;51920;53.952;10.292;2023-05-13T10:00:49;6.68;;;4.43;;
65315;SDS011;51920;53.952;10.292;2023-05-13T10:03:17;6.25;;;4.68;;
65315;SDS011;51920;53.952;10.292;2023-05-13T10:05:43;6.10;;;4.50;;
65315;SDS011;51920;53.952;10.292;2023-05-13T10:08:12;7.22;;;4.65;;
65315;SDS011;51920;53.952;10.292;2023-05-13T10:10:41;7.95;;;4.90;;
65315;SDS011;51920;53.952;10.292;2023-05-13T10:13:12;5.15;;;4.65;;
65315;SDS011;51920;53.952;10.292;2023-05-13T10:15:50;8.45;;;5.10;;
65315;SDS011;51920;53.952;10.292;2023-05-13T10:18:19;10.23;;;5.10;;
65315;SDS011;51920;53.952;10.292;2023-05-13T10:20:46;8.73;;;5.10;;
65315;SDS011;51920;53.952;10.292;2023-05-13T10:23:19;7.75;;;5.53;;
65315;SDS011;51920;53.952;10.292;2023-05-13T10:25:46;6.32;;;5.30;;
65315;SDS011;51920;53.952;10.292;2023-05-13T10:28:14;8.07;;;5.45;;
65315;SDS011;51920;53.952;10.292;2023-05-13T10:30:42;10.80;;;5.63;;
65315;SDS011;51920;53.952;10.292;2023-05-13T10:33:10;8.57;;;5.50;;
65315;SDS011;51920;53.952;10.292;2023-05-13T10:35:37;9.88;;;5.50;;
65315;SDS011;51920;53.952;10.292;2023-05-13T10:40:58;6.70;;;5.35;;
65315;SDS011;51920;53.952;10.292;2023-05-13T10:43:34;6.97;;;5.60;;
65315;SDS011;51920;53.952;10.292;2023-05-13T10:48:36;9.98;;;6.50;;
65315;SDS011;51920;53.952;10.292;2023-05-13T10:51:14;7.63;;;6.03;;
65315;SDS011;51920;53.952;10.292;2023-05-13T10:56:18;7.67;;;6.10;;
65315;SDS011;51920;53.952;10.292;2023-05-13T10:59:01;8.20;;;5.88;;
65315;SDS011;51920;53.952;10.292;2023-05-13T11:01:36;8.32;;;6.40;;
65315;SDS011;51920;53.952;10.292;2023-05-13T11:04:13;12.23;;;6.50;;
65315;SDS011;51920;53.952;10.292;2023-05-13T11:06:42;8.07;;;6.80;;
65315;SDS011;51920;53.952;10.292;2023-05-13T11:09:12;8.10;;;6.40;;
65315;SDS011;51920;53.952;10.292;2023-05-13T11:11:44;7.50;;;6.10;;
65315;SDS011;51920;53.952;10.292;2023-05-13T11:14:22;9.38;;;6.38;;
65315;SDS011;51920;53.952;10.292;2023-05-13T11:19:20;7.38;;;6.40;;
65315;SDS011;51920;53.952;10.292;2023-05-13T11:21:51;10.87;;;6.50;;
65315;SDS011;51920;53.952;10.292;2023-05-13T11:24:19;7.30;;;5.97;;
65315;SDS011;51920;53.952;10.292;2023-05-13T11:26:54;8.57;;;6.00;;
65315;SDS011;51920;53.952;10.292;2023-05-13T11:29:26;7.28;;;5.82;;
65315;SDS011;51920;53.952;10.292;2023-05-13T11:31:58;6.80;;;6.07;;
65315;SDS011;51920;53.952;10.292;2023-05-13T11:34:26;7.07;;;5.93;;
65315;SDS011;51920;53.952;10.292;2023-05-13T11:39:29;8.63;;;5.80;;
65315;SDS011;51920;53.952;10.292;2023-05-13T11:41:57;9.52;;;5.50;;
65315;SDS011;51920;53.952;10.292;2023-05-13T11:44:27;10.82;;;5.65;;
65315;SDS011;51920;53.952;10.292;2023-05-13T11:52:15;6.80;;;5.32;;
65315;SDS011;51920;53.952;10.292;2023-05-13T11:54:55;10.85;;;5.50;;
65315;SDS011;51920;53.952;10.292;2023-05-13T12:00:01;6.07;;;5.23;;
65315;SDS011;51920;53.952;10.292;2023-05-13T12:02:36;7.72;;;5.20;;
65315;SDS011;51920;53.952;10.292;2023-05-13T12:05:06;6.07;;;5.32;;
65315;SDS011;51920;53.952;10.292;2023-05-13T12:07:34;5.80;;;4.80;;
65315;SDS011;51920;53.952;10.292;2023-05-13T12:10:02;5.97;;;5.20;;
65315;SDS011;51920;53.952;10.292;2023-05-13T12:12:31;9.70;;;5.13;;
65315;SDS011;51920;53.952;10.292;2023-05-13T12:15:04;5.68;;;4.90;;
65315;SDS011;51920;53.952;10.292;2023-05-13T12:17:32;7.50;;;4.90;;
65315;SDS011;51920;53.952;10.292;2023-05-13T12:20:07;7.25;;;4.70;;
65315;SDS011;51920;53.952;10.292;2023-05-13T12:30:53;6.13;;;4.68;;
65315;SDS011;51920;53.952;10.292;2023-05-13T12:33:26;9.05;;;4.68;;
65315;SDS011;51920;53.952;10.292;2023-05-13T12:41:28;4.82;;;4.13;;
65315;SDS011;51920;53.952;10.292;2023-05-13T12:44:17;7.10;;;4.68;;
65315;SDS011;51920;53.952;10.292;2023-05-13T12:46:49;4.97;;;4.47;;
65315;SDS011;51920;53.952;10.292;2023-05-13T12:49:18;5.60;;;4.60;;
65315;SDS011;51920;53.952;10.292;2023-05-13T12:51:45;6.90;;;4.17;;
65315;SDS011;51920;53.952;10.292;2023-05-13T12:54:11;9.02;;;4.30;;
65315;SDS011;51920;53.952;10.292;2023-05-13T12:56:38;4.70;;;4.05;;
65315;SDS011;51920;53.952;10.292;2023-05-13T12:59:08;8.63;;;4.20;;
65315;SDS011;51920;53.952;10.292;2023-05-13T13:01:35;4.68;;;4.10;;
65315;SDS011;51920;53.952;10.292;2023-05-13T13:04:02;4.53;;;4.13;;
65315;SDS011;51920;53.952;10.292;2023-05-13T13:06:30;5.35;;;3.70;;
65315;SDS011;51920;53.952;10.292;2023-05-13T13:08:57;5.82;;;3.78;;
65315;SDS011;51920;53.952;10.292;2023-05-13T13:11:24;5.43;;;4.00;;
65315;SDS011;51920;53.952;10.292;2023-05-13T13:13:51;4.97;;;3.80;;
65315;SDS011;51920;53.952;10.292;2023-05-13T13:16:18;7.30;;;4.10;;
65315;SDS011;51920;53.952;10.292;2023-05-13T13:18:45;5.18;;;4.05;;
65315;SDS011;51920;53.952;10.292;2023-05-13T13:21:12;6.10;;;4.28;;
65315;SDS011;51920;53.952;10.292;2023-05-13T13:23:39;5.85;;;4.00;;
65315;SDS011;51920;53.952;10.292;2023-05-13T13:26:05;5.25;;;3.90;;
65315;SDS011;51920;53.952;10.292;2023-05-13T13:28:32;5.40;;;3.80;;
65315;SDS011;51920;53.952;10.292;2023-05-13T13:30:59;5.35;;;4.10;;
65315;SDS011;51920;53.952;10.292;2023-05-13T13:33:26;5.05;;;3.75;;
65315;SDS011;51920;53.952;10.292;2023-05-13T13:35:53;5.25;;;4.00;;
65315;SDS011;51920;53.952;10.292;2023-05-13T13:38:19;5.55;;;3.92;;
65315;SDS011;51920;53.952;10.292;2023-05-13T13:40:46;7.60;;;3.73;;
65315;SDS011;51920;53.952;10.292;2023-05-13T13:43:13;5.93;;;4.00;;
65315;SDS011;51920;53.952;10.292;2023-05-13T13:45:40;4.68;;;3.88;;
65315;SDS011;51920;53.952;10.292;2023-05-13T13:48:07;6.32;;;3.85;;
65315;SDS011;51920;53.952;10.292;2023-05-13T13:50:33;7.78;;;4.10;;
65315;SDS011;51920;53.952;10.292;2023-05-13T13:53:00;5.23;;;3.83;;
65315;SDS011;51920;53.952;10.292;2023-05-13T13:55:52;4.45;;;3.63;;
65315;SDS011;51920;53.952;10.292;2023-05-13T13:58:19;4.93;;;3.70;;
65315;SDS011;51920;53.952;10.292;2023-05-13T14:00:45;6.65;;;3.88;;
65315;SDS011;51920;53.952;10.292;2023-05-13T14:03:12;8.25;;;4.22;;
65315;SDS011;51920;53.952;10.292;2023-05-13T14:05:38;5.60;;;3.93;;
65315;SDS011;51920;53.952;10.292;2023-05-13T14:08:05;5.60;;;4.05;;
65315;SDS011;51920;53.952;10.292;2023-05-13T14:10:32;5.63;;;4.25;;
65315;SDS011;51920;53.952;10.292;2023-05-13T14:12:59;6.22;;;3.97;;
65315;SDS011;51920;53.952;10.292;2023-05-13T14:15:26;5.85;;;4.00;;
65315;SDS011;51920;53.952;10.292;2023-05-13T14:17:55;5.00;;;3.70;;
65315;SDS011;51920;53.952;10.292;2023-05-13T14:20:22;5.57;;;4.18;;
65315;SDS011;51920;53.952;10.292;2023-05-13T14:22:50;6.47;;;4.10;;
65315;SDS011;51920;53.952;10.292;2023-05-13T14:25:17;4.30;;;3.90;;
65315;SDS011;51920;53.952;10.292;2023-05-13T14:27:43;5.50;;;4.00;;
65315;SDS011;51920;53.952;10.292;2023-05-13T14:30:10;5.73;;;3.93;;
65315;SDS011;51920;53.952;10.292;2023-05-13T14:32:37;6.57;;;3.80;;
65315;SDS011;51920;53.952;10.292;2023-05-13T14:35:03;4.95;;;3.78;;
65315;SDS011;51920;53.952;10.292;2023-05-13T14:37:30;6.85;;;4.03;;
65315;SDS011;51920;53.952;10.292;2023-05-13T14:39:57;6.05;;;3.92;;
65315;SDS011;51920;53.952;10.292;2023-05-13T14:42:24;4.30;;;3.70;;
65315;SDS011;51920;53.952;10.292;2023-05-13T14:44:51;7.18;;;3.90;;
65315;SDS011;51920;53.952;10.292;2023-05-13T14:47:17;4.47;;;3.80;;
65315;SDS011;51920;53.952;10.292;2023-05-13T14:49:44;5.25;;;3.75;;
65315;SDS011;51920;53.952;10.292;2023-05-13T14:52:11;6.55;;;3.58;;
65315;SDS011;51920;53.952;10.292;2023-05-13T14:54:38;6.97;;;3.70;;
65315;SDS011;51920;53.952;10.292;2023-05-13T14:57:04;6.70;;;3.50;;
65315;SDS011;51920;53.952;10.292;2023-05-13T14:59:32;7.38;;;3.88;;
65315;SDS011;51920;53.952;10.292;2023-05-13T15:02:00;5.05;;;3.50;;
65315;SDS011;51920;53.952;10.292;2023-05-13T15:04:27;5.40;;;3.50;;
65315;SDS011;51920;53.952;10.292;2023-05-13T15:06:54;4.63;;;3.40;;